Time;durP1;ratioP1;P1;durP2;ratioP2;P2;SDS_P1;SDS_P2;PMS_P1;PMS_P2;Temp;Humidity;BMP_temperature;BMP_pressure;BME280_temperature;BME280_humidity;BME280_pressure;Samples;Min_cycle;Max_cycle;Signal;HPM_P1;HPM_P2
2022/12/22 03:27:24;;;;;;;8.63;4.68;;;12.00;99.90;;;;;;5089277;28;20043;-87
2022/12/22 03:29:50;;;;;;;7.87;4.87;;;11.90;99.90;;;;;;5077446;28;20396;-84
2022/12/22 03:32:16;;;;;;;8.88;4.03;;;11.90;99.90;;;;;;5086898;28;20062;-82
2022/12/22 03:34:42;;;;;;;7.43;4.45;;;11.90;99.90;;;;;;5089410;28;20103;-85
2022/12/22 03:37:08;;;;;;;6.97;4.82;;;11.90;99.90;;;;;;5066993;28;20176;-83
2022/12/22 03:39:35;;;;;;;8.20;4.77;;;11.80;99.90;;;;;;5086936;28;20020;-84
2022/12/22 03:47:31;;;;;;;9.07;5.03;;;11.70;99.90;;;;;;5088873;28;20083;-84
2022/12/22 03:49:57;;;;;;;7.70;4.13;;;11.70;99.90;;;;;;5088865;28;20110;-83
2022/12/22 03:52:23;;;;;;;7.37;4.70;;;11.70;99.90;;;;;;5090299;28;20043;-85
2022/12/22 03:54:50;;;;;;;9.05;6.55;;;11.60;99.90;;;;;;5079601;28;21660;-84
2022/12/22 03:57:16;;;;;;;9.20;5.55;;;11.60;99.90;;;;;;5064634;28;20116;-83
2022/12/22 03:59:42;;;;;;;9.23;5.13;;;11.50;99.90;;;;;;5089587;28;20111;-83
2022/12/22 04:02:08;;;;;;;8.13;5.33;;;11.50;99.90;;;;;;5089922;28;20054;-84
2022/12/22 04:04:34;;;;;;;6.53;4.93;;;11.50;99.90;;;;;;5090131;28;20282;-84
2022/12/22 04:07:01;;;;;;;8.50;5.03;;;11.50;99.90;;;;;;5090376;28;20035;-85
2022/12/22 04:09:28;;;;;;;7.80;4.78;;;11.50;99.90;;;;;;5090321;28;21642;-84
2022/12/22 04:14:39;;;;;;;8.35;4.00;;;11.50;99.90;;;;;;5089942;28;20030;-85
2022/12/22 04:17:06;;;;;;;6.93;4.10;;;11.50;99.90;;;;;;5088267;28;20064;-84
2022/12/22 04:19:32;;;;;;;6.57;4.28;;;11.50;99.90;;;;;;5090304;28;20038;-83
2022/12/22 04:21:59;;;;;;;12.90;4.78;;;11.50;99.90;;;;;;5089755;28;20035;-85
2022/12/22 04:24:25;;;;;;;9.32;4.95;;;11.50;99.90;;;;;;5096815;27;20028;-84
2022/12/22 04:26:51;;;;;;;11.47;4.17;;;11.50;99.90;;;;;;5090486;28;20061;-85
2022/12/22 04:29:18;;;;;;;11.82;3.92;;;11.60;99.90;;;;;;5088865;28;20292;-86
2022/12/22 04:31:44;;;;;;;5.57;3.83;;;11.50;99.90;;;;;;5089931;28;20103;-85
2022/12/22 04:34:10;;;;;;;6.07;3.40;;;11.50;99.90;;;;;;5087126;28;20030;-85
2022/12/22 04:36:36;;;;;;;6.90;3.20;;;11.60;99.90;;;;;;5085956;28;20116;-83
2022/12/22 04:39:02;;;;;;;7.50;3.17;;;11.60;99.90;;;;;;5073832;28;20032;-84
2022/12/22 04:41:28;;;;;;;8.37;3.50;;;11.70;99.90;;;;;;5088716;28;20044;-86
2022/12/22 04:43:54;;;;;;;7.13;3.20;;;11.70;99.90;;;;;;5089022;28;20114;-86
2022/12/22 04:46:20;;;;;;;6.70;3.80;;;11.70;99.90;;;;;;5089405;28;20488;-86
2022/12/22 04:48:46;;;;;;;8.45;3.88;;;11.70;99.90;;;;;;5098895;28;20052;-84
2022/12/22 04:51:12;;;;;;;10.40;4.37;;;11.80;99.90;;;;;;5088819;28;20027;-87
2022/12/22 04:53:39;;;;;;;5.63;2.90;;;11.70;99.90;;;;;;5088474;28;20052;-88
2022/12/22 04:56:06;;;;;;;5.97;3.60;;;11.70;99.90;;;;;;5095301;28;20035;-86
2022/12/22 04:58:33;;;;;;;8.13;3.35;;;11.80;99.90;;;;;;5097769;28;20036;-89
2022/12/22 05:01:10;;;;;;;;;;;11.80;99.90;;;;;;5091104;28;20134;-83
2022/12/22 05:03:36;;;;;;;7.68;3.25;;;11.80;99.90;;;;;;5104171;28;19923;-86
2022/12/22 05:06:02;;;;;;;8.10;3.20;;;11.90;99.90;;;;;;5115161;28;20028;-87
2022/12/22 05:08:28;;;;;;;4.28;2.65;;;11.90;99.90;;;;;;5115101;28;20019;-87
2022/12/22 05:10:54;;;;;;;9.93;3.33;;;11.90;99.90;;;;;;5100037;28;20102;-88
2022/12/22 05:13:20;;;;;;;6.10;2.97;;;11.90;99.90;;;;;;5074325;28;20415;-91
2022/12/22 05:15:46;;;;;;;5.90;3.40;;;11.90;99.90;;;;;;5088102;28;20201;-87
2022/12/22 05:18:12;;;;;;;7.07;3.97;;;11.90;99.90;;;;;;5089212;27;20291;-91
2022/12/22 05:20:38;;;;;;;7.10;4.07;;;11.80;99.90;;;;;;5088937;28;20055;-91
2022/12/22 05:23:04;;;;;;;12.27;4.10;;;11.70;99.90;;;;;;5087221;28;20082;-90
2022/12/22 05:25:30;;;;;;;7.40;4.25;;;11.70;99.90;;;;;;5089926;28;20099;-93
2022/12/22 05:28:00;;;;;;;10.17;4.30;;;11.60;99.90;;;;;;5085230;28;20036;-87
2022/12/22 05:30:26;;;;;;;11.63;4.30;;;11.50;99.90;;;;;;5087349;28;20039;-88
2022/12/22 05:32:53;;;;;;;7.25;4.20;;;11.40;99.90;;;;;;5084618;28;20050;-84
2022/12/22 05:35:19;;;;;;;7.32;4.05;;;11.30;99.90;;;;;;5087555;28;20476;-85
2022/12/22 05:37:45;;;;;;;6.80;3.77;;;11.30;99.90;;;;;;5089047;28;20090;-84
2022/12/22 05:40:12;;;;;;;8.65;4.35;;;11.30;99.90;;;;;;5088050;28;20102;-85
2022/12/22 05:42:38;;;;;;;9.07;4.15;;;11.30;99.90;;;;;;5087013;28;20032;-85
2022/12/22 05:45:16;;;;;;;6.80;4.03;;;11.20;99.90;;;;;;5088549;28;20027;-85
2022/12/22 05:47:45;;;;;;;7.47;4.78;;;11.20;99.90;;;;;;5085433;28;20023;-84
2022/12/22 05:50:14;;;;;;;7.70;4.40;;;11.10;99.90;;;;;;5086818;28;20054;-84
2022/12/22 05:52:41;;;;;;;7.93;4.30;;;11.00;99.90;;;;;;5089007;28;20043;-84
2022/12/22 05:55:08;;;;;;;10.93;4.78;;;11.00;99.90;;;;;;5088484;28;20069;-84
2022/12/22 05:57:34;;;;;;;8.75;4.93;;;10.90;99.90;;;;;;5106088;28;20055;-87
2022/12/22 06:00:00;;;;;;;6.53;4.32;;;10.80;99.90;;;;;;5101394;28;20057;-87
2022/12/22 06:02:26;;;;;;;8.40;4.93;;;10.70;99.90;;;;;;5086966;28;20055;-86
2022/12/22 06:04:52;;;;;;;6.23;4.23;;;10.60;99.90;;;;;;5087344;28;20198;-86
2022/12/22 06:07:18;;;;;;;13.00;4.75;;;10.60;99.90;;;;;;5089392;28;20111;-87
2022/12/22 06:09:44;;;;;;;11.30;5.28;;;10.60;99.90;;;;;;5084066;28;20028;-88
2022/12/22 06:12:11;;;;;;;9.35;5.05;;;10.60;99.90;;;;;;5087388;28;20038;-89
2022/12/22 06:14:37;;;;;;;10.87;5.20;;;10.50;99.90;;;;;;5088960;28;20028;-90
2022/12/22 06:17:03;;;;;;;7.45;5.00;;;10.50;99.90;;;;;;5080007;28;20293;-89
2022/12/22 06:19:29;;;;;;;8.27;4.55;;;10.50;99.90;;;;;;5087748;28;20036;-86
2022/12/22 06:21:55;;;;;;;9.00;5.45;;;10.50;99.90;;;;;;5088292;28;21695;-88
2022/12/22 06:24:21;;;;;;;9.80;5.38;;;10.40;99.90;;;;;;5088541;28;20035;-87
2022/12/22 06:26:47;;;;;;;11.60;5.18;;;10.40;99.90;;;;;;5089173;28;20035;-88
2022/12/22 06:29:13;;;;;;;8.73;5.30;;;10.40;99.90;;;;;;5084550;28;20032;-88
2022/12/22 06:31:39;;;;;;;13.20;5.82;;;10.50;99.90;;;;;;5082148;28;20050;-85
2022/12/22 06:34:06;;;;;;;7.78;5.40;;;10.50;99.90;;;;;;5092052;28;20409;-84
2022/12/22 06:36:33;;;;;;;10.50;5.00;;;10.80;99.90;;;;;;5092688;28;20024;-87
2022/12/22 06:38:59;;;;;;;8.43;4.95;;;11.10;99.90;;;;;;5091592;28;20270;-81
2022/12/22 06:44:11;;;;;;;12.40;4.93;;;11.30;99.90;;;;;;5093024;28;20086;-83
2022/12/22 06:46:43;;;;;;;7.15;4.00;;;11.50;99.90;;;;;;5092185;28;20032;-83
2022/12/22 06:49:11;;;;;;;7.95;4.15;;;11.60;99.90;;;;;;5093423;28;20041;-80
2022/12/22 06:51:37;;;;;;;9.85;4.30;;;11.50;99.90;;;;;;5071047;28;20430;-81
2022/12/22 06:54:03;;;;;;;7.90;4.10;;;11.50;99.90;;;;;;5072059;28;20048;-84
2022/12/22 06:56:29;;;;;;;10.10;4.32;;;11.40;99.90;;;;;;5073324;28;20069;-87
2022/12/22 06:58:55;;;;;;;7.80;4.33;;;11.40;99.90;;;;;;5072541;28;20033;-83
2022/12/22 07:01:21;;;;;;;7.53;4.00;;;11.50;99.90;;;;;;5077071;28;20288;-88
2022/12/22 07:03:47;;;;;;;8.82;4.65;;;11.70;99.90;;;;;;5092530;28;20053;-87
2022/12/22 07:06:17;;;;;;;10.00;3.57;;;12.00;99.90;;;;;;5080874;28;20107;-84
2022/12/22 07:08:45;;;;;;;9.20;3.80;;;12.20;99.90;;;;;;5091733;28;20032;-80
2022/12/22 07:11:11;;;;;;;7.63;3.35;;;12.60;99.90;;;;;;5090264;28;20020;-81
2022/12/22 07:13:37;;;;;;;10.63;3.63;;;13.00;99.90;;;;;;5091832;28;20374;-79
2022/12/22 07:16:06;;;;;;;6.00;3.07;;;13.10;99.90;;;;;;5088952;28;20036;-80
2022/12/22 07:18:37;;;;;;;6.63;3.30;;;13.00;99.90;;;;;;5092118;28;20023;-76
2022/12/22 07:21:09;;;;;;;7.28;3.45;;;13.30;99.90;;;;;;5079031;28;20032;-82
2022/12/22 07:23:36;;;;;;;9.77;3.30;;;13.60;99.90;;;;;;5092259;28;20081;-81
2022/12/22 07:26:04;;;;;;;9.68;3.78;;;13.70;99.90;;;;;;5092310;28;20031;-75
2022/12/22 07:28:33;;;;;;;7.32;3.55;;;14.30;99.90;;;;;;5092065;28;20123;-80
2022/12/22 07:30:59;;;;;;;6.95;3.80;;;14.50;99.90;;;;;;5092044;28;20035;-76
2022/12/22 07:33:25;;;;;;;6.18;3.90;;;14.60;99.90;;;;;;5091910;28;20031;-76
2022/12/22 07:36:05;;;;;;;9.60;4.20;;;14.90;99.90;;;;;;5083976;28;20447;-74
2022/12/22 07:38:36;;;;;;;11.35;3.90;;;15.00;99.90;;;;;;5090229;28;20090;-78
2022/12/22 07:41:02;;;;;;;8.20;3.33;;;15.20;99.90;;;;;;5091580;28;20034;-74
2022/12/22 07:43:28;;;;;;;11.93;4.32;;;15.40;99.90;;;;;;5090718;28;20479;-82
2022/12/22 07:45:54;;;;;;;11.88;3.55;;;15.70;99.90;;;;;;5080316;28;20059;-68
2022/12/22 07:51:06;;;;;;;6.28;3.55;;;15.90;99.90;;;;;;5095004;28;20092;-69
2022/12/22 07:53:34;;;;;;;6.88;3.30;;;15.70;99.90;;;;;;5093225;28;20126;-72
2022/12/22 07:56:08;;;;;;;8.35;3.83;;;15.50;99.90;;;;;;5083141;28;20223;-68
2022/12/22 07:58:34;;;;;;;12.98;3.70;;;15.30;99.90;;;;;;5097446;28;20020;-72
2022/12/22 08:01:00;;;;;;;7.67;3.23;;;15.10;99.90;;;;;;5084971;28;20035;-69
2022/12/22 08:03:27;;;;;;;8.88;3.75;;;15.10;99.90;;;;;;5074171;28;20728;-70
2022/12/22 08:05:56;;;;;;;8.43;3.33;;;15.10;99.90;;;;;;5092936;28;20541;-71
2022/12/22 08:08:22;;;;;;;8.65;3.53;;;15.40;99.90;;;;;;5093753;28;20030;-67
2022/12/22 08:10:53;;;;;;;10.10;3.40;;;15.20;99.90;;;;;;5093374;28;20106;-71
2022/12/22 08:13:20;;;;;;;7.35;3.30;;;15.20;99.90;;;;;;5093040;28;20020;-69
2022/12/22 08:15:47;;;;;;;6.43;3.00;;;15.40;99.90;;;;;;5090642;28;20035;-68
2022/12/22 08:18:13;;;;;;;10.00;3.40;;;15.70;99.90;;;;;;5091302;28;20103;-70
2022/12/22 08:20:40;;;;;;;7.40;3.17;;;16.00;99.90;;;;;;5090895;28;20074;-71
2022/12/22 08:23:06;;;;;;;6.28;3.47;;;15.90;99.90;;;;;;5091743;28;20032;-73
2022/12/22 08:25:35;;;;;;;7.05;2.97;;;16.00;99.90;;;;;;5092678;28;20027;-71
2022/12/22 08:28:02;;;;;;;9.30;4.22;;;16.30;99.90;;;;;;5092651;28;20060;-70
2022/12/22 08:30:28;;;;;;;;;;;16.60;99.90;;;;;;5091764;28;20028;-71
2022/12/22 08:32:54;;;;;;;8.82;3.40;;;16.60;99.90;;;;;;5093482;28;19908;-73
2022/12/22 08:35:43;;;;;;;11.05;3.75;;;16.80;99.90;;;;;;5091950;28;20455;-69
2022/12/22 08:38:14;;;;;;;11.40;4.05;;;17.10;99.90;;;;;;5083334;28;20471;-71
2022/12/22 08:40:44;;;;;;;9.00;3.40;;;17.20;99.90;;;;;;5089606;28;20039;-68
2022/12/22 08:43:18;;;;;;;9.00;3.80;;;17.40;99.90;;;;;;5094344;28;20118;-70
2022/12/22 08:45:53;;;;;;;8.63;3.60;;;17.50;99.90;;;;;;5091288;28;20046;-71
2022/12/22 08:48:25;;;;;;;9.93;3.72;;;17.60;99.90;;;;;;5086574;28;20051;-73
2022/12/22 08:50:51;;;;;;;8.60;4.95;;;17.60;99.90;;;;;;5081255;28;20095;-71
2022/12/22 08:53:17;;;;;;;11.75;3.85;;;17.60;99.90;;;;;;5094183;28;20444;-71
2022/12/22 08:55:53;;;;;;;6.28;3.55;;;17.70;99.90;;;;;;5110305;28;20023;-72
2022/12/22 08:58:21;;;;;;;;;;;17.80;99.90;;;;;;5113935;28;20040;-74
2022/12/22 09:00:47;;;;;;;7.03;3.30;;;17.70;99.90;;;;;;5074057;28;19912;-78
2022/12/22 09:03:13;;;;;;;9.88;3.30;;;18.00;99.90;;;;;;5072280;28;20127;-70
2022/12/22 09:05:40;;;;;;;7.43;2.97;;;17.90;99.90;;;;;;5087158;28;20495;-69
2022/12/22 09:08:07;;;;;;;6.78;3.28;;;18.00;99.90;;;;;;5111405;28;20028;-71
2022/12/22 09:10:34;;;;;;;10.88;3.53;;;17.90;99.90;;;;;;5079122;28;20028;-70
2022/12/22 09:13:01;;;;;;;6.55;2.50;;;17.60;99.90;;;;;;5073541;28;20111;-69
2022/12/22 09:15:27;;;;;;;6.38;2.75;;;17.70;99.90;;;;;;5073271;28;20191;-68
2022/12/22 09:17:53;;;;;;;5.35;2.42;;;17.80;99.90;;;;;;5073243;28;20070;-69
2022/12/22 09:20:19;;;;;;;6.75;2.90;;;17.80;99.90;;;;;;5088409;28;20025;-69
2022/12/22 09:22:45;;;;;;;7.65;3.13;;;17.70;99.90;;;;;;5092350;28;20046;-70
2022/12/22 09:25:13;;;;;;;9.00;2.78;;;17.70;99.90;;;;;;5093788;28;20025;-70
2022/12/22 09:27:39;;;;;;;8.73;2.90;;;17.60;99.90;;;;;;5093587;28;20032;-69
2022/12/22 09:30:06;;;;;;;8.52;2.80;;;17.70;99.90;;;;;;5093790;28;20395;-67
2022/12/22 09:32:32;;;;;;;8.80;2.80;;;17.80;99.90;;;;;;5093215;28;20024;-66
2022/12/22 09:34:58;;;;;;;6.43;2.78;;;17.80;99.90;;;;;;5092031;28;20090;-65
2022/12/22 09:37:24;;;;;;;11.70;2.58;;;17.90;99.90;;;;;;5078434;28;20032;-75
2022/12/22 09:39:50;;;;;;;4.80;2.33;;;17.90;99.90;;;;;;5072212;28;20388;-75
2022/12/22 09:42:20;;;;;;;6.88;2.40;;;17.80;99.90;;;;;;5073583;28;20409;-76
2022/12/22 09:44:50;;;;;;;8.20;2.10;;;17.70;99.90;;;;;;5073104;28;20545;-78
2022/12/22 09:47:28;;;;;;;9.05;2.58;;;17.80;99.90;;;;;;5088276;28;20023;-78
2022/12/22 09:49:56;;;;;;;6.55;2.60;;;17.80;99.90;;;;;;5093604;28;20391;-78
2022/12/22 09:52:34;;;;;;;6.43;2.70;;;17.80;99.90;;;;;;5092515;28;20035;-77
2022/12/22 09:55:02;;;;;;;5.78;2.70;;;17.80;99.90;;;;;;5091085;28;20028;-74
2022/12/22 09:57:32;;;;;;;7.93;3.03;;;17.80;99.90;;;;;;5093588;28;20027;-72
2022/12/22 10:00:06;;;;;;;5.05;2.40;;;17.90;99.90;;;;;;5093309;28;20340;-78
2022/12/22 10:03:03;;;;;;;8.55;2.78;;;17.90;99.90;;;;;;5091271;28;20052;-72
2022/12/22 10:05:44;;;;;;;5.90;2.13;;;18.00;99.90;;;;;;5092616;28;20020;-73
2022/12/22 10:08:13;;;;;;;7.30;2.80;;;18.10;99.90;;;;;;5093793;28;20364;-74
2022/12/22 10:10:40;;;;;;;10.38;2.45;;;18.10;99.90;;;;;;5093376;28;20024;-78
2022/12/22 10:13:13;;;;;;;6.50;2.50;;;18.20;99.90;;;;;;5095219;28;20055;-78
2022/12/22 10:15:40;;;;;;;9.38;2.50;;;18.30;99.90;;;;;;5093193;28;20024;-78
2022/12/22 10:18:18;;;;;;;8.77;2.25;;;18.30;99.90;;;;;;5093184;28;20078;-74
2022/12/22 10:21:05;;;;;;;5.43;2.58;;;18.50;99.90;;;;;;5092698;28;20031;-79
2022/12/22 10:23:37;;;;;;;6.88;2.58;;;18.40;99.90;;;;;;5092106;28;20036;-78
2022/12/22 10:26:14;;;;;;;6.13;2.47;;;18.60;99.90;;;;;;5092410;28;20097;-77
2022/12/22 10:29:12;;;;;;;8.55;2.80;;;18.80;99.90;;;;;;5093108;28;20066;-78
2022/12/22 10:32:00;;;;;;;8.25;2.75;;;18.80;99.90;;;;;;5092674;28;20348;-78
2022/12/22 10:37:05;;;;;;;6.45;3.30;;;19.00;99.90;;;;;;5118403;22;20065;-76
2022/12/22 10:39:37;;;;;;;6.50;2.53;;;19.00;99.90;;;;;;5002882;28;20042;-74
2022/12/22 10:42:13;;;;;;;10.13;2.67;;;19.20;99.90;;;;;;5010090;28;20014;-75
2022/12/22 10:44:45;;;;;;;5.35;2.75;;;19.30;99.90;;;;;;5010467;28;20650;-71
2022/12/22 10:47:15;;;;;;;9.52;3.00;;;19.20;99.90;;;;;;5001837;28;20423;-73
2022/12/22 10:49:47;;;;;;;8.65;2.80;;;19.30;99.90;;;;;;5007460;28;20052;-74
2022/12/22 10:52:19;;;;;;;9.23;3.08;;;19.50;99.90;;;;;;5011120;28;20749;-75
2022/12/22 10:54:45;;;;;;;7.15;2.92;;;19.50;99.90;;;;;;5010781;28;20117;-75
2022/12/22 10:57:15;;;;;;;8.10;2.58;;;19.30;99.90;;;;;;5000091;28;20064;-76
2022/12/22 10:59:57;;;;;;;7.75;2.55;;;19.40;99.90;;;;;;5011105;28;20049;-73
2022/12/22 11:02:23;;;;;;;7.15;2.67;;;19.40;99.90;;;;;;5010844;28;20553;-74
2022/12/22 11:04:50;;;;;;;10.73;2.60;;;19.50;99.90;;;;;;4997694;28;20030;-74
2022/12/22 11:07:16;;;;;;;6.07;2.35;;;19.50;99.90;;;;;;4991860;28;20141;-75
2022/12/22 11:09:43;;;;;;;7.03;2.40;;;19.50;99.90;;;;;;5006126;28;20053;-76
2022/12/22 11:12:36;;;;;;;5.03;2.22;;;19.30;99.90;;;;;;5011117;28;20417;-80
2022/12/22 11:15:22;;;;;;;6.18;2.05;;;19.60;99.90;;;;;;5009165;28;20130;-78
2022/12/22 11:17:49;;;;;;;6.85;2.10;;;19.50;99.90;;;;;;5005432;28;20041;-80
2022/12/22 11:20:23;;;;;;;;;;;19.30;99.90;;;;;;5011491;28;20080;-79
2022/12/22 11:23:18;;;;;;;7.05;2.33;;;19.20;99.90;;;;;;5042663;28;19909;-70
2022/12/22 11:26:19;;;;;;;8.57;2.40;;;19.20;99.90;;;;;;5010035;28;20498;-76
2022/12/22 11:29:14;;;;;;;5.88;2.35;;;19.40;99.90;;;;;;4998183;28;20046;-78
2022/12/22 11:32:17;;;;;;;4.40;2.08;;;19.30;99.90;;;;;;5023992;28;20059;-77
2022/12/22 11:35:12;;;;;;;8.43;2.50;;;19.30;99.90;;;;;;5021727;28;20068;-71
2022/12/22 11:38:03;;;;;;;6.00;2.25;;;19.30;99.90;;;;;;5014759;28;20050;-70
2022/12/22 11:40:41;;;;;;;12.50;2.83;;;19.50;99.90;;;;;;5047120;28;20042;-72
2022/12/22 11:43:24;;;;;;;7.88;2.60;;;19.50;99.90;;;;;;5022113;28;20034;-73
2022/12/22 11:46:06;;;;;;;6.22;2.58;;;19.40;99.90;;;;;;5015504;28;20044;-73
2022/12/22 11:48:38;;;;;;;8.75;2.75;;;19.40;99.90;;;;;;5016027;28;20078;-77
2022/12/22 11:51:10;;;;;;;6.03;2.70;;;19.40;99.90;;;;;;5014651;28;20417;-74
2022/12/22 11:54:21;;;;;;;12.52;3.15;;;19.20;99.90;;;;;;5015222;28;20018;-72
2022/12/22 11:57:19;;;;;;;6.55;2.80;;;19.10;99.90;;;;;;4993225;28;20521;-76
2022/12/22 11:59:59;;;;;;;11.02;3.00;;;19.00;99.90;;;;;;5013375;28;20042;-75
2022/12/22 12:03:10;;;;;;;7.47;2.72;;;19.00;99.90;;;;;;5014404;28;20034;-70
2022/12/22 12:05:50;;;;;;;6.10;2.92;;;19.00;99.90;;;;;;5013723;28;20038;-69
2022/12/22 12:08:36;;;;;;;6.07;2.75;;;18.60;99.90;;;;;;5009249;28;20026;-75
2022/12/22 12:11:22;;;;;;;9.82;2.78;;;18.60;99.90;;;;;;5014709;28;20029;-77
2022/12/22 12:14:12;;;;;;;9.93;2.65;;;18.80;99.90;;;;;;5002990;28;20482;-79
2022/12/22 12:17:02;;;;;;;8.98;2.85;;;19.00;99.90;;;;;;5005870;28;20046;-79
2022/12/22 12:19:58;;;;;;;9.13;2.97;;;19.00;99.90;;;;;;5012286;28;20029;-78
2022/12/22 12:22:57;;;;;;;9.13;3.08;;;19.20;99.90;;;;;;5015399;28;20462;-80
2022/12/22 12:25:36;;;;;;;6.22;2.78;;;19.00;99.90;;;;;;5015007;28;20030;-79
2022/12/22 12:28:33;;;;;;;7.35;2.65;;;19.30;99.90;;;;;;5015771;28;20029;-79
2022/12/22 12:31:00;;;;;;;8.57;3.03;;;19.30;99.90;;;;;;4987776;28;20031;-78
2022/12/22 12:33:43;;;;;;;10.82;3.20;;;19.40;99.90;;;;;;4995808;28;20094;-78
2022/12/22 12:36:30;;;;;;;9.63;3.50;;;19.40;99.90;;;;;;4994891;28;20105;-79
2022/12/22 12:39:02;;;;;;;10.35;2.83;;;19.20;99.90;;;;;;5011923;28;20029;-76
2022/12/22 12:41:56;;;;;;;7.90;2.97;;;19.20;99.90;;;;;;5003885;28;20430;-79
2022/12/22 12:44:30;;;;;;;7.75;3.40;;;19.40;99.90;;;;;;5036806;28;20400;-77
2022/12/22 12:47:25;;;;;;;6.72;3.03;;;19.60;99.90;;;;;;5012580;28;20077;-78
2022/12/22 12:50:18;;;;;;;14.00;3.60;;;19.50;99.90;;;;;;5012388;28;20069;-77
2022/12/22 12:52:47;;;;;;;8.10;2.83;;;19.60;99.90;;;;;;5013325;28;20053;-78
2022/12/22 12:55:24;;;;;;;7.00;2.95;;;19.30;99.90;;;;;;5013380;28;20125;-77
2022/12/22 12:57:54;;;;;;;11.38;2.95;;;19.10;99.90;;;;;;5011977;28;20045;-78
2022/12/22 13:00:31;;;;;;;7.63;2.88;;;19.40;99.90;;;;;;5014004;28;20029;-79
2022/12/22 13:03:08;;;;;;;7.53;3.22;;;19.10;99.90;;;;;;5011285;28;20077;-77
2022/12/22 13:05:50;;;;;;;6.53;2.92;;;18.70;99.90;;;;;;5010928;28;20057;-78
2022/12/22 13:08:21;;;;;;;9.70;3.78;;;18.20;99.90;;;;;;5006991;28;20080;-79
2022/12/22 13:10:53;;;;;;;10.70;2.92;;;18.30;99.90;;;;;;5011604;28;20415;-88
2022/12/22 13:13:25;;;;;;;10.77;3.15;;;18.30;99.90;;;;;;5039592;28;20057;-72
2022/12/22 13:16:06;;;;;;;8.60;2.83;;;18.30;99.90;;;;;;5015298;28;20406;-69
2022/12/22 13:18:44;;;;;;;11.50;3.40;;;18.30;99.90;;;;;;5020077;28;20393;-74
2022/12/22 13:21:30;;;;;;;7.43;3.40;;;18.30;99.90;;;;;;5014888;28;20470;-76
2022/12/22 13:24:28;;;;;;;7.00;3.20;;;18.10;99.90;;;;;;5009551;28;20396;-78
2022/12/22 13:27:00;;;;;;;7.65;3.45;;;18.20;99.90;;;;;;4982774;28;20030;-81
2022/12/22 13:29:41;;;;;;;9.95;3.55;;;18.20;99.90;;;;;;4992137;28;20384;-77
2022/12/22 13:32:18;;;;;;;9.05;3.72;;;18.30;99.90;;;;;;4991232;28;20046;-81
2022/12/22 13:34:52;;;;;;;9.90;3.22;;;18.30;99.90;;;;;;4991642;28;20514;-80
2022/12/22 13:37:24;;;;;;;12.27;3.55;;;18.30;99.90;;;;;;4992344;28;20146;-79
2022/12/22 13:40:19;;;;;;;10.20;3.42;;;18.30;99.90;;;;;;4992675;28;20072;-81
2022/12/22 13:42:55;;;;;;;7.05;2.97;;;18.40;99.90;;;;;;4992018;28;20161;-79
2022/12/22 13:45:44;;;;;;;13.35;3.78;;;18.50;99.90;;;;;;4992656;28;20106;-81
2022/12/22 13:48:33;;;;;;;9.02;4.10;;;18.60;99.90;;;;;;4990355;28;20054;-81
2022/12/22 13:51:03;;;;;;;12.65;3.75;;;18.80;99.90;;;;;;4992091;28;20046;-80
2022/12/22 13:53:47;;;;;;;12.13;3.97;;;19.10;99.90;;;;;;4991714;28;20049;-80
2022/12/22 13:56:16;;;;;;;10.55;3.30;;;19.10;99.90;;;;;;4992005;28;20403;-81
2022/12/22 13:58:46;;;;;;;13.27;3.53;;;19.10;99.90;;;;;;4991752;28;20386;-78
2022/12/22 14:01:18;;;;;;;9.43;3.10;;;19.20;99.90;;;;;;4975043;28;20030;-81
2022/12/22 14:03:57;;;;;;;13.52;3.88;;;19.10;99.90;;;;;;5006394;28;20049;-79
2022/12/22 14:06:30;;;;;;;11.35;4.28;;;19.20;99.90;;;;;;5009574;28;20050;-80
2022/12/22 14:09:29;;;;;;;14.43;3.40;;;19.20;99.90;;;;;;4993510;28;20160;-80
2022/12/22 14:12:10;;;;;;;11.82;3.53;;;19.10;99.90;;;;;;5003201;28;20045;-80
2022/12/22 14:14:38;;;;;;;10.70;3.10;;;19.10;99.90;;;;;;5006401;28;20077;-79
2022/12/22 14:17:25;;;;;;;10.40;3.22;;;19.00;99.90;;;;;;5011381;28;20038;-80
2022/12/22 14:19:57;;;;;;;10.65;3.38;;;19.00;99.90;;;;;;5010764;28;20026;-78
2022/12/22 14:23:01;;;;;;;10.75;3.08;;;18.80;99.90;;;;;;5011098;28;20471;-79
2022/12/22 14:25:40;;;;;;;18.10;3.95;;;18.70;99.90;;;;;;5011131;28;20067;-79
2022/12/22 14:28:23;;;;;;;11.32;3.33;;;18.50;99.90;;;;;;5011319;28;20037;-78
2022/12/22 14:30:59;;;;;;;11.27;3.13;;;18.30;99.90;;;;;;5011102;28;20109;-79
2022/12/22 14:33:31;;;;;;;12.98;2.97;;;18.30;99.90;;;;;;5010035;28;20502;-78
2022/12/22 14:36:23;;;;;;;13.95;3.28;;;18.30;99.90;;;;;;5011063;28;20120;-77
2022/12/22 14:38:54;;;;;;;9.75;3.20;;;18.30;99.90;;;;;;5007962;28;20152;-80
2022/12/22 14:41:40;;;;;;;9.90;2.92;;;18.20;99.90;;;;;;5011089;28;20049;-79
2022/12/22 14:44:13;;;;;;;;;;;18.30;99.90;;;;;;5010513;28;20045;-76
2022/12/22 14:46:43;;;;;;;9.45;2.92;;;18.30;99.90;;;;;;5008297;28;19906;-77
2022/12/22 14:49:17;;;;;;;11.75;3.80;;;18.40;99.90;;;;;;5008927;28;20022;-77
2022/12/22 14:51:56;;;;;;;14.60;3.40;;;18.40;99.90;;;;;;4992578;28;20030;-77
2022/12/22 14:54:27;;;;;;;10.68;2.88;;;18.50;99.90;;;;;;5010869;28;20041;-81
2022/12/22 14:57:03;;;;;;;12.32;3.22;;;18.50;99.90;;;;;;5011066;28;20030;-79
2022/12/22 14:59:30;;;;;;;10.13;2.60;;;18.40;99.90;;;;;;5014926;28;20036;-77
2022/12/22 15:02:29;;;;;;;12.93;3.13;;;18.30;99.90;;;;;;5015789;28;20026;-76
2022/12/22 15:05:15;;;;;;;13.95;3.67;;;18.00;99.90;;;;;;5016326;28;20045;-79
2022/12/22 15:07:47;;;;;;;11.95;3.33;;;17.80;99.90;;;;;;5016667;28;20461;-80
2022/12/22 15:10:14;;;;;;;16.67;3.45;;;17.50;99.90;;;;;;5013356;28;20030;-79
2022/12/22 15:12:40;;;;;;;18.33;3.83;;;17.30;99.90;;;;;;5009602;28;20466;-78
2022/12/22 15:15:15;;;;;;;12.50;4.13;;;17.30;99.90;;;;;;5015606;28;20026;-79
2022/12/22 15:17:44;;;;;;;21.50;5.28;;;17.20;99.90;;;;;;5015402;28;20030;-77
2022/12/22 15:20:16;;;;;;;16.17;3.95;;;17.10;99.90;;;;;;5015622;28;20486;-78
2022/12/22 15:22:44;;;;;;;13.25;4.45;;;17.10;99.90;;;;;;5013327;28;20506;-78
2022/12/22 15:25:21;;;;;;;17.25;4.90;;;16.90;99.90;;;;;;5014379;28;20033;-78
2022/12/22 15:27:51;;;;;;;13.98;3.70;;;16.70;99.90;;;;;;5014706;28;20033;-76
2022/12/22 15:30:20;;;;;;;15.15;4.45;;;16.50;99.90;;;;;;5015993;28;20030;-80
2022/12/22 15:32:48;;;;;;;15.75;3.72;;;16.30;99.90;;;;;;5014804;28;20026;-79
2022/12/22 15:35:22;;;;;;;13.88;3.70;;;16.20;99.90;;;;;;5015408;28;20076;-78
2022/12/22 15:37:49;;;;;;;12.27;3.53;;;16.10;99.90;;;;;;5015508;28;20061;-79
2022/12/22 15:40:18;;;;;;;14.07;3.90;;;16.10;99.90;;;;;;5015479;28;20029;-79
2022/12/22 15:42:44;;;;;;;13.02;3.80;;;16.00;99.90;;;;;;5014976;28;20539;-79
2022/12/22 15:45:12;;;;;;;17.60;3.78;;;16.00;99.90;;;;;;5015375;28;20034;-78
2022/12/22 15:47:40;;;;;;;11.98;3.75;;;16.00;99.90;;;;;;5015539;28;20049;-79
2022/12/22 15:50:09;;;;;;;14.60;3.50;;;16.00;99.90;;;;;;5014801;28;20504;-76
2022/12/22 15:52:35;;;;;;;15.68;3.95;;;15.90;99.90;;;;;;5012728;28;20108;-77
2022/12/22 15:55:02;;;;;;;17.13;4.03;;;15.80;99.90;;;;;;5045296;28;20069;-75
2022/12/22 15:57:28;;;;;;;14.65;3.65;;;15.80;99.90;;;;;;5013413;28;20018;-74
2022/12/22 15:59:54;;;;;;;13.35;3.67;;;15.80;99.90;;;;;;5014889;28;20059;-74
2022/12/22 16:02:22;;;;;;;13.27;3.65;;;15.70;99.90;;;;;;5012437;28;20025;-73
2022/12/22 16:04:48;;;;;;;12.77;3.45;;;15.80;99.90;;;;;;5007542;28;20041;-76
2022/12/22 16:07:15;;;;;;;12.63;3.20;;;15.80;99.90;;;;;;5013599;28;20509;-77
2022/12/22 16:09:44;;;;;;;14.93;4.07;;;15.70;99.90;;;;;;5013469;28;20454;-82
2022/12/22 16:12:19;;;;;;;18.05;3.20;;;15.70;99.90;;;;;;5012888;28;20037;-72
2022/12/22 16:14:48;;;;;;;12.88;3.55;;;15.80;99.90;;;;;;5009968;28;20041;-78
2022/12/22 16:17:35;;;;;;;13.20;3.28;;;15.70;99.90;;;;;;5010191;28;20029;-76
2022/12/22 16:20:02;;;;;;;14.10;4.00;;;15.70;99.90;;;;;;5013178;28;20022;-83
2022/12/22 16:22:35;;;;;;;12.15;4.00;;;15.70;99.90;;;;;;5013359;28;20057;-82
2022/12/22 16:25:12;;;;;;;11.52;2.88;;;15.70;99.90;;;;;;5026752;28;20041;-77
2022/12/22 16:27:49;;;;;;;12.70;3.08;;;15.70;99.90;;;;;;5018866;28;20030;-82
2022/12/22 16:30:21;;;;;;;12.88;3.38;;;15.70;99.90;;;;;;5014228;28;20033;-85
2022/12/22 16:32:51;;;;;;;13.02;3.50;;;15.70;99.90;;;;;;5015190;28;20026;-82
2022/12/22 16:35:31;;;;;;;8.35;2.92;;;15.60;99.90;;;;;;5014888;28;20050;-81
2022/12/22 16:38:04;;;;;;;6.80;2.92;;;15.60;99.90;;;;;;5012696;28;20494;-81
2022/12/22 16:40:49;;;;;;;7.47;2.67;;;15.50;99.90;;;;;;5019836;28;20029;-80
2022/12/22 16:43:36;;;;;;;9.10;3.10;;;15.50;99.90;;;;;;5013275;28;20030;-81
2022/12/22 16:46:06;;;;;;;14.23;3.20;;;15.50;99.90;;;;;;5009733;28;20113;-83
2022/12/22 16:48:45;;;;;;;14.93;3.40;;;15.40;99.90;;;;;;5014647;28;20108;-82
2022/12/22 16:51:37;;;;;;;8.10;3.03;;;15.40;99.90;;;;;;5010388;28;20034;-77
2022/12/22 16:54:03;;;;;;;13.30;3.70;;;15.30;99.90;;;;;;4995397;28;20053;-78
2022/12/22 16:56:31;;;;;;;12.45;3.53;;;15.30;99.90;;;;;;5013943;28;20048;-76